sensor_id;sensor_type;location;lat;lon;timestamp;pressure;altitude;pressure_sealevel;temperature;humidity
30744;BME280;17486;46.738;7.622;2022-09-01T00:02:11;95265.72;;;20.34;55.60
30744;BME280;17486;46.738;7.622;2022-09-01T00:04:37;95234.84;;;20.15;55.33
30744;BME280;17486;46.738;7.622;2022-09-01T00:07:07;95267.53;;;20.24;55.45
30744;BME280;17486;46.738;7.622;2022-09-01T00:09:33;95263.34;;;20.21;55.38
30744;BME280;17486;46.738;7.622;2022-09-01T00:11:59;95206.69;;;19.85;55.55
30744;BME280;17486;46.738;7.622;2022-09-01T00:14:28;95255.38;;;20.12;55.86
30744;BME280;17486;46.738;7.622;2022-09-01T00:16:53;95266.91;;;20.11;56.04
30744;BME280;17486;46.738;7.622;2022-09-01T00:19:20;95230.59;;;19.93;56.22
30744;BME280;17486;46.738;7.622;2022-09-01T00:21:45;95251.22;;;20.09;56.22
30744;BME280;17486;46.738;7.622;2022-09-01T00:24:14;95251.06;;;20.11;55.89
30744;BME280;17486;46.738;7.622;2022-09-01T00:26:40;95244.00;;;20.11;56.17
30744;BME280;17486;46.738;7.622;2022-09-01T00:29:05;95243.28;;;20.09;56.02
30744;BME280;17486;46.738;7.622;2022-09-01T00:31:31;95250.25;;;20.10;56.12
30744;BME280;17486;46.738;7.622;2022-09-01T00:33:56;95219.75;;;19.96;56.20
30744;BME280;17486;46.738;7.622;2022-09-01T00:36:22;95257.34;;;20.10;56.24
30744;BME280;17486;46.738;7.622;2022-09-01T00:38:48;95246.91;;;20.08;56.22
30744;BME280;17486;46.738;7.622;2022-09-01T00:41:15;95244.91;;;20.00;56.61
30744;BME280;17486;46.738;7.622;2022-09-01T00:46:15;95237.94;;;19.90;56.51
30744;BME280;17486;46.738;7.622;2022-09-01T00:48:41;95243.09;;;19.91;56.68
30744;BME280;17486;46.738;7.622;2022-09-01T00:51:09;95228.16;;;19.80;56.61
30744;BME280;17486;46.738;7.622;2022-09-01T00:53:36;95226.63;;;19.78;56.45
30744;BME280;17486;46.738;7.622;2022-09-01T00:56:04;95246.28;;;19.85;56.66
30744;BME280;17486;46.738;7.622;2022-09-01T00:58:30;95222.16;;;19.68;56.90
30744;BME280;17486;46.738;7.622;2022-09-01T01:00:55;95236.94;;;19.81;56.77
30744;BME280;17486;46.738;7.622;2022-09-01T01:03:21;95242.31;;;19.79;56.65
30744;BME280;17486;46.738;7.622;2022-09-01T01:05:53;95235.78;;;19.74;56.83
30744;BME280;17486;46.738;7.622;2022-09-01T01:08:26;95245.63;;;19.71;56.66
30744;BME280;17486;46.738;7.622;2022-09-01T01:11:13;95215.53;;;19.53;56.78
30744;BME280;17486;46.738;7.622;2022-09-01T01:13:54;95245.22;;;19.66;56.94
30744;BME280;17486;46.738;7.622;2022-09-01T01:16:23;95214.28;;;19.47;56.73
30744;BME280;17486;46.738;7.622;2022-09-01T01:18:49;95237.09;;;19.58;57.18
30744;BME280;17486;46.738;7.622;2022-09-01T01:21:41;95217.56;;;19.39;57.21
30744;BME280;17486;46.738;7.622;2022-09-01T01:24:32;95229.16;;;19.48;57.26
30744;BME280;17486;46.738;7.622;2022-09-01T01:26:59;95218.66;;;19.37;57.19
30744;BME280;17486;46.738;7.622;2022-09-01T01:29:26;95220.03;;;19.31;57.48
30744;BME280;17486;46.738;7.622;2022-09-01T01:31:53;95241.16;;;19.41;57.39
30744;BME280;17486;46.738;7.622;2022-09-01T01:34:19;95246.44;;;19.41;57.46
30744;BME280;17486;46.738;7.622;2022-09-01T01:36:47;95216.25;;;19.24;57.61
30744;BME280;17486;46.738;7.622;2022-09-01T01:39:19;95242.53;;;19.35;57.62
30744;BME280;17486;46.738;7.622;2022-09-01T01:41:46;95247.38;;;19.30;57.67
30744;BME280;17486;46.738;7.622;2022-09-01T01:44:15;95248.31;;;19.29;57.88
30744;BME280;17486;46.738;7.622;2022-09-01T01:46:46;95251.81;;;19.30;57.59
30744;BME280;17486;46.738;7.622;2022-09-01T01:49:15;95238.44;;;19.21;57.72
30744;BME280;17486;46.738;7.622;2022-09-01T01:51:44;95254.69;;;19.27;57.82
30744;BME280;17486;46.738;7.622;2022-09-01T01:54:12;95254.81;;;19.25;57.71
30744;BME280;17486;46.738;7.622;2022-09-01T01:56:37;95254.97;;;19.24;57.70
30744;BME280;17486;46.738;7.622;2022-09-01T01:59:07;95256.19;;;19.19;57.82
30744;BME280;17486;46.738;7.622;2022-09-01T02:01:37;95230.97;;;19.05;57.70
30744;BME280;17486;46.738;7.622;2022-09-01T02:04:03;95263.25;;;19.19;57.81
30744;BME280;17486;46.738;7.622;2022-09-01T02:06:32;95234.69;;;19.03;57.75
30744;BME280;17486;46.738;7.622;2022-09-01T02:08:59;95256.84;;;19.12;57.67
30744;BME280;17486;46.738;7.622;2022-09-01T02:11:27;95252.78;;;19.08;57.77
30744;BME280;17486;46.738;7.622;2022-09-01T02:13:54;95225.41;;;18.87;57.62
30744;BME280;17486;46.738;7.622;2022-09-01T02:16:28;95255.66;;;19.04;57.72
30744;BME280;17486;46.738;7.622;2022-09-01T02:18:54;95254.97;;;19.02;57.73
30744;BME280;17486;46.738;7.622;2022-09-01T02:21:22;95251.75;;;18.99;57.80
30744;BME280;17486;46.738;7.622;2022-09-01T02:26:37;95259.47;;;18.91;57.75
30744;BME280;17486;46.738;7.622;2022-09-01T02:29:06;95230.16;;;18.72;57.98
30744;BME280;17486;46.738;7.622;2022-09-01T02:31:35;95264.38;;;18.84;58.24
30744;BME280;17486;46.738;7.622;2022-09-01T02:34:04;95237.00;;;18.64;58.21
30744;BME280;17486;46.738;7.622;2022-09-01T02:36:30;95263.44;;;18.73;58.22
30744;BME280;17486;46.738;7.622;2022-09-01T02:39:00;95252.69;;;18.65;58.39
30744;BME280;17486;46.738;7.622;2022-09-01T02:41:25;95234.94;;;18.46;58.57
30744;BME280;17486;46.738;7.622;2022-09-01T02:43:56;95247.84;;;18.49;58.94
30744;BME280;17486;46.738;7.622;2022-09-01T02:46:22;95249.19;;;18.44;59.24
30744;BME280;17486;46.738;7.622;2022-09-01T02:48:48;95253.25;;;18.36;59.50
30744;BME280;17486;46.738;7.622;2022-09-01T02:51:17;95240.13;;;18.25;59.64
30744;BME280;17486;46.738;7.622;2022-09-01T02:53:44;95252.78;;;18.31;59.94
30744;BME280;17486;46.738;7.622;2022-09-01T02:56:12;95254.84;;;18.28;59.91
30744;BME280;17486;46.738;7.622;2022-09-01T02:58:40;95230.84;;;18.10;60.00
30744;BME280;17486;46.738;7.622;2022-09-01T03:01:14;95262.03;;;18.14;60.32
30744;BME280;17486;46.738;7.622;2022-09-01T03:03:46;95236.72;;;18.02;60.57
30744;BME280;17486;46.738;7.622;2022-09-01T03:06:12;95226.28;;;17.89;60.45
30744;BME280;17486;46.738;7.622;2022-09-01T03:08:39;95243.31;;;17.96;60.81
30744;BME280;17486;46.738;7.622;2022-09-01T03:11:06;95250.22;;;17.97;60.79
30744;BME280;17486;46.738;7.622;2022-09-01T03:13:37;95210.97;;;17.83;61.00
30744;BME280;17486;46.738;7.622;2022-09-01T03:16:05;95231.44;;;18.02;60.75
30744;BME280;17486;46.738;7.622;2022-09-01T03:18:30;95229.63;;;18.02;60.91
30744;BME280;17486;46.738;7.622;2022-09-01T03:20:56;95236.34;;;18.06;60.84
30744;BME280;17486;46.738;7.622;2022-09-01T03:23:22;95237.66;;;18.12;60.87
30744;BME280;17486;46.738;7.622;2022-09-01T03:25:49;95234.63;;;18.17;60.80
30744;BME280;17486;46.738;7.622;2022-09-01T03:28:15;95205.00;;;18.03;60.75
30744;BME280;17486;46.738;7.622;2022-09-01T03:30:46;95237.72;;;18.22;60.37
30744;BME280;17486;46.738;7.622;2022-09-01T03:33:13;95238.00;;;18.19;60.34
30744;BME280;17486;46.738;7.622;2022-09-01T03:35:41;95215.50;;;18.15;60.40
30744;BME280;17486;46.738;7.622;2022-09-01T03:38:06;95226.50;;;18.20;60.33
30744;BME280;17486;46.738;7.622;2022-09-01T03:40:34;95230.81;;;18.21;60.13
30744;BME280;17486;46.738;7.622;2022-09-01T03:43:05;95200.47;;;18.05;60.14
30744;BME280;17486;46.738;7.622;2022-09-01T03:45:35;95205.84;;;18.04;60.04
30744;BME280;17486;46.738;7.622;2022-09-01T03:48:06;95230.22;;;18.17;60.09
30744;BME280;17486;46.738;7.622;2022-09-01T03:50:39;95235.72;;;18.14;60.12
30744;BME280;17486;46.738;7.622;2022-09-01T03:53:14;95222.34;;;18.06;59.97
30744;BME280;17486;46.738;7.622;2022-09-01T03:55:43;95213.97;;;18.01;59.88
30744;BME280;17486;46.738;7.622;2022-09-01T03:58:09;95228.56;;;18.05;60.15
30744;BME280;17486;46.738;7.622;2022-09-01T04:00:42;95252.38;;;18.15;60.06
30744;BME280;17486;46.738;7.622;2022-09-01T04:03:10;95222.00;;;17.99;60.17
30744;BME280;17486;46.738;7.622;2022-09-01T04:05:38;95202.03;;;17.97;60.26
30744;BME280;17486;46.738;7.622;2022-09-01T04:08:07;95234.75;;;18.15;60.22
30744;BME280;17486;46.738;7.622;2022-09-01T04:10:41;95206.22;;;17.99;59.95
30744;BME280;17486;46.738;7.622;2022-09-01T04:13:12;95231.19;;;18.16;59.93
30744;BME280;17486;46.738;7.622;2022-09-01T04:15:38;95195.94;;;17.96;59.95
30744;BME280;17486;46.738;7.622;2022-09-01T04:18:04;95225.31;;;18.13;60.03
30744;BME280;17486;46.738;7.622;2022-09-01T04:20:46;95199.53;;;17.95;60.00
30744;BME280;17486;46.738;7.622;2022-09-01T04:23:29;95229.97;;;18.09;59.90
30744;BME280;17486;46.738;7.622;2022-09-01T04:26:01;95222.59;;;18.03;59.91
30744;BME280;17486;46.738;7.622;2022-09-01T04:28:35;95205.22;;;17.89;59.87
30744;BME280;17486;46.738;7.622;2022-09-01T04:31:04;95235.63;;;18.04;59.83
30744;BME280;17486;46.738;7.622;2022-09-01T04:33:34;95229.16;;;17.97;59.82
30744;BME280;17486;46.738;7.622;2022-09-01T04:36:24;95230.03;;;17.98;60.11
30744;BME280;17486;46.738;7.622;2022-09-01T04:38:55;95233.09;;;17.92;59.92
30744;BME280;17486;46.738;7.622;2022-09-01T04:41:22;95233.00;;;17.93;60.15
30744;BME280;17486;46.738;7.622;2022-09-01T04:43:50;95246.38;;;17.90;60.28
30744;BME280;17486;46.738;7.622;2022-09-01T04:46:17;95228.22;;;17.87;60.27
30744;BME280;17486;46.738;7.622;2022-09-01T04:48:43;95208.72;;;17.67;60.42
30744;BME280;17486;46.738;7.622;2022-09-01T04:51:10;95245.09;;;17.84;60.26
30744;BME280;17486;46.738;7.622;2022-09-01T04:53:37;95209.66;;;17.66;60.49
30744;BME280;17486;46.738;7.622;2022-09-01T04:56:04;95241.72;;;17.82;60.57
30744;BME280;17486;46.738;7.622;2022-09-01T04:58:30;95243.63;;;17.80;60.70
30744;BME280;17486;46.738;7.622;2022-09-01T05:00:55;95219.03;;;17.70;60.70
30744;BME280;17486;46.738;7.622;2022-09-01T05:03:21;95236.59;;;17.81;60.61
30744;BME280;17486;46.738;7.622;2022-09-01T05:05:49;95244.59;;;17.79;60.63
30744;BME280;17486;46.738;7.622;2022-09-01T05:08:17;95209.91;;;17.63;60.62
30744;BME280;17486;46.738;7.622;2022-09-01T05:10:46;95237.41;;;17.81;60.57
30744;BME280;17486;46.738;7.622;2022-09-01T05:13:14;95228.09;;;17.77;60.77
30744;BME280;17486;46.738;7.622;2022-09-01T05:15:43;95216.63;;;17.67;60.71
30744;BME280;17486;46.738;7.622;2022-09-01T05:18:17;95246.84;;;17.84;60.77
30744;BME280;17486;46.738;7.622;2022-09-01T05:20:51;95224.84;;;17.73;60.65
30744;BME280;17486;46.738;7.622;2022-09-01T05:23:17;95240.63;;;17.85;60.82
30744;BME280;17486;46.738;7.622;2022-09-01T05:25:45;95241.59;;;17.84;60.60
30744;BME280;17486;46.738;7.622;2022-09-01T05:28:14;95246.72;;;17.85;60.76
30744;BME280;17486;46.738;7.622;2022-09-01T05:30:40;95258.09;;;17.86;60.54
30744;BME280;17486;46.738;7.622;2022-09-01T05:33:06;95245.16;;;17.83;60.86
30744;BME280;17486;46.738;7.622;2022-09-01T05:35:54;95244.47;;;17.81;61.04
30744;BME280;17486;46.738;7.622;2022-09-01T05:38:20;95248.66;;;17.83;60.79
30744;BME280;17486;46.738;7.622;2022-09-01T05:40:54;95259.06;;;17.85;61.03
30744;BME280;17486;46.738;7.622;2022-09-01T05:43:22;95231.31;;;17.69;61.03
30744;BME280;17486;46.738;7.622;2022-09-01T05:45:48;95249.75;;;17.81;61.22
30744;BME280;17486;46.738;7.622;2022-09-01T05:48:13;95257.38;;;17.84;61.16
30744;BME280;17486;46.738;7.622;2022-09-01T05:50:45;95265.63;;;17.90;60.95
30744;BME280;17486;46.738;7.622;2022-09-01T05:53:13;95239.56;;;17.76;61.20
30744;BME280;17486;46.738;7.622;2022-09-01T05:55:46;95236.94;;;17.76;61.29
30744;BME280;17486;46.738;7.622;2022-09-01T05:58:15;95244.47;;;17.81;61.55
30744;BME280;17486;46.738;7.622;2022-09-01T06:00:42;95262.69;;;17.95;61.25
30744;BME280;17486;46.738;7.622;2022-09-01T06:03:12;95261.72;;;17.96;61.44
30744;BME280;17486;46.738;7.622;2022-09-01T06:05:39;95272.72;;;18.01;61.21
30744;BME280;17486;46.738;7.622;2022-09-01T06:08:06;95242.06;;;17.89;61.19
30744;BME280;17486;46.738;7.622;2022-09-01T06:10:35;95268.03;;;18.05;60.86
30744;BME280;17486;46.738;7.622;2022-09-01T06:13:05;95277.00;;;18.14;61.16
30744;BME280;17486;46.738;7.622;2022-09-01T06:15:31;95287.19;;;18.18;61.37
30744;BME280;17486;46.738;7.622;2022-09-01T06:17:57;95274.84;;;18.19;61.11
30744;BME280;17486;46.738;7.622;2022-09-01T06:20:23;95278.22;;;18.21;61.23
30744;BME280;17486;46.738;7.622;2022-09-01T06:22:50;95271.97;;;18.22;61.58
30744;BME280;17486;46.738;7.622;2022-09-01T06:25:17;95281.53;;;18.23;61.49
30744;BME280;17486;46.738;7.622;2022-09-01T06:27:44;95257.28;;;18.08;61.66
30744;BME280;17486;46.738;7.622;2022-09-01T06:30:11;95276.13;;;18.25;61.29
30744;BME280;17486;46.738;7.622;2022-09-01T06:32:43;95280.72;;;18.22;61.27
30744;BME280;17486;46.738;7.622;2022-09-01T06:35:10;95273.50;;;18.25;61.28
30744;BME280;17486;46.738;7.622;2022-09-01T06:37:37;95281.28;;;18.26;61.32
30744;BME280;17486;46.738;7.622;2022-09-01T06:40:03;95259.41;;;18.14;61.23
30744;BME280;17486;46.738;7.622;2022-09-01T06:42:29;95243.50;;;18.16;61.14
30744;BME280;17486;46.738;7.622;2022-09-01T06:45:00;95253.31;;;18.25;60.97
30744;BME280;17486;46.738;7.622;2022-09-01T06:47:25;95250.81;;;18.23;60.99
30744;BME280;17486;46.738;7.622;2022-09-01T06:49:53;95253.31;;;18.25;61.00
30744;BME280;17486;46.738;7.622;2022-09-01T06:52:20;95281.47;;;18.46;60.70
30744;BME280;17486;46.738;7.622;2022-09-01T06:54:47;95251.13;;;18.30;61.20
30744;BME280;17486;46.738;7.622;2022-09-01T06:57:15;95251.59;;;18.35;60.83
30744;BME280;17486;46.738;7.622;2022-09-01T06:59:40;95249.41;;;18.40;61.01
30744;BME280;17486;46.738;7.622;2022-09-01T07:02:06;95281.19;;;18.60;61.06
30744;BME280;17486;46.738;7.622;2022-09-01T07:04:33;95281.66;;;18.65;60.90
30744;BME280;17486;46.738;7.622;2022-09-01T07:06:58;95286.78;;;18.78;60.78
30744;BME280;17486;46.738;7.622;2022-09-01T07:09:24;95300.19;;;18.86;60.81
30744;BME280;17486;46.738;7.622;2022-09-01T07:11:51;95256.00;;;18.79;60.70
30744;BME280;17486;46.738;7.622;2022-09-01T07:14:17;95274.91;;;18.84;60.45
30744;BME280;17486;46.738;7.622;2022-09-01T07:16:43;95299.50;;;19.05;60.49
30744;BME280;17486;46.738;7.622;2022-09-01T07:19:11;95304.28;;;19.12;60.45
30744;BME280;17486;46.738;7.622;2022-09-01T07:21:41;95298.50;;;19.18;59.72
30744;BME280;17486;46.738;7.622;2022-09-01T07:24:08;95278.56;;;19.04;59.51
30744;BME280;17486;46.738;7.622;2022-09-01T07:26:35;95298.25;;;19.21;59.54
30744;BME280;17486;46.738;7.622;2022-09-01T07:29:04;95286.06;;;19.09;59.12
30744;BME280;17486;46.738;7.622;2022-09-01T07:31:40;95302.66;;;19.20;59.14
30744;BME280;17486;46.738;7.622;2022-09-01T07:34:09;95318.84;;;19.27;58.98
30744;BME280;17486;46.738;7.622;2022-09-01T07:36:40;95301.06;;;19.29;59.17
30744;BME280;17486;46.738;7.622;2022-09-01T07:39:07;95306.53;;;19.37;58.87
30744;BME280;17486;46.738;7.622;2022-09-01T07:41:33;95282.75;;;19.28;58.57
30744;BME280;17486;46.738;7.622;2022-09-01T07:43:59;95311.16;;;19.45;58.34
30744;BME280;17486;46.738;7.622;2022-09-01T07:46:28;95277.78;;;19.34;58.38
30744;BME280;17486;46.738;7.622;2022-09-01T07:48:57;95296.88;;;19.48;58.42
30744;BME280;17486;46.738;7.622;2022-09-01T07:51:27;95278.81;;;19.43;58.43
30744;BME280;17486;46.738;7.622;2022-09-01T07:53:53;95301.72;;;19.64;58.33
30744;BME280;17486;46.738;7.622;2022-09-01T07:56:21;95309.22;;;19.68;58.34
30744;BME280;17486;46.738;7.622;2022-09-01T07:58:48;95311.34;;;19.75;58.56
30744;BME280;17486;46.738;7.622;2022-09-01T08:01:20;95279.09;;;19.71;58.53
30744;BME280;17486;46.738;7.622;2022-09-01T08:03:49;95309.28;;;19.99;58.38
30744;BME280;17486;46.738;7.622;2022-09-01T08:06:17;95280.91;;;20.01;57.95
30744;BME280;17486;46.738;7.622;2022-09-01T08:08:44;95279.88;;;20.24;57.50
30744;BME280;17486;46.738;7.622;2022-09-01T08:11:15;95301.63;;;20.57;57.19
30744;BME280;17486;46.738;7.622;2022-09-01T08:13:41;95271.22;;;20.62;56.44
30744;BME280;17486;46.738;7.622;2022-09-01T08:16:06;95272.22;;;20.81;55.82
30744;BME280;17486;46.738;7.622;2022-09-01T08:18:32;95268.88;;;20.89;54.77
30744;BME280;17486;46.738;7.622;2022-09-01T08:20:58;95280.56;;;21.06;55.05
30744;BME280;17486;46.738;7.622;2022-09-01T08:23:23;95285.56;;;21.09;54.83
30744;BME280;17486;46.738;7.622;2022-09-01T08:25:51;95286.97;;;21.13;54.08
30744;BME280;17486;46.738;7.622;2022-09-01T08:28:18;95288.63;;;21.14;54.11
30744;BME280;17486;46.738;7.622;2022-09-01T08:30:44;95286.69;;;21.16;54.36
30744;BME280;17486;46.738;7.622;2022-09-01T08:33:10;95277.34;;;21.22;54.32
30744;BME280;17486;46.738;7.622;2022-09-01T08:35:47;95285.56;;;21.28;54.45
30744;BME280;17486;46.738;7.622;2022-09-01T08:38:13;95288.06;;;21.40;54.17
30744;BME280;17486;46.738;7.622;2022-09-01T08:40:40;95264.66;;;21.35;54.14
30744;BME280;17486;46.738;7.622;2022-09-01T08:48:41;95283.28;;;21.73;52.55
30744;BME280;17486;46.738;7.622;2022-09-01T08:51:24;95291.06;;;21.84;53.70
30744;BME280;17486;46.738;7.622;2022-09-01T08:53:57;95284.19;;;21.91;51.97
30744;BME280;17486;46.738;7.622;2022-09-01T08:56:25;95277.50;;;21.87;52.30
30744;BME280;17486;46.738;7.622;2022-09-01T08:58:51;95288.81;;;21.89;52.01
30744;BME280;17486;46.738;7.622;2022-09-01T09:06:58;95286.59;;;22.12;51.33
30744;BME280;17486;46.738;7.622;2022-09-01T09:09:19;95291.47;;;22.17;51.34
30744;BME280;17486;46.738;7.622;2022-09-01T09:17:00;95295.72;;;22.38;51.35
30744;BME280;17486;46.738;7.622;2022-09-01T09:19:32;95260.16;;;22.30;51.25
30744;BME280;17486;46.738;7.622;2022-09-01T09:22:01;95285.50;;;22.43;50.75
30744;BME280;17486;46.738;7.622;2022-09-01T09:24:36;95267.56;;;22.37;50.55
30744;BME280;17486;46.738;7.622;2022-09-01T09:32:22;95279.06;;;22.45;50.26
30744;BME280;17486;46.738;7.622;2022-09-01T09:34:49;95290.22;;;22.49;50.21
30744;BME280;17486;46.738;7.622;2022-09-01T09:37:29;95283.38;;;22.46;50.30
30744;BME280;17486;46.738;7.622;2022-09-01T09:40:31;95279.59;;;22.49;50.19
30744;BME280;17486;46.738;7.622;2022-09-01T09:45:25;95267.06;;;22.51;50.26
30744;BME280;17486;46.738;7.622;2022-09-01T09:47:53;95259.66;;;22.55;50.25
30744;BME280;17486;46.738;7.622;2022-09-01T09:50:24;95247.53;;;22.52;50.07
30744;BME280;17486;46.738;7.622;2022-09-01T09:52:51;95247.38;;;22.54;49.81
30744;BME280;17486;46.738;7.622;2022-09-01T09:57:50;95270.25;;;22.73;49.97
30744;BME280;17486;46.738;7.622;2022-09-01T10:00:30;95264.41;;;22.87;49.74
30744;BME280;17486;46.738;7.622;2022-09-01T10:08:13;95243.63;;;23.37;48.43
30744;BME280;17486;46.738;7.622;2022-09-01T10:10:41;95249.63;;;23.65;47.87
30744;BME280;17486;46.738;7.622;2022-09-01T10:13:10;95233.19;;;23.70;47.15
30744;BME280;17486;46.738;7.622;2022-09-01T10:15:36;95224.97;;;23.81;46.81
30744;BME280;17486;46.738;7.622;2022-09-01T10:18:16;95249.22;;;24.12;46.70
30744;BME280;17486;46.738;7.622;2022-09-01T10:20:53;95215.00;;;24.09;46.01
30744;BME280;17486;46.738;7.622;2022-09-01T10:23:21;95245.47;;;24.31;46.56
30744;BME280;17486;46.738;7.622;2022-09-01T10:25:50;95217.53;;;24.27;46.16
30744;BME280;17486;46.738;7.622;2022-09-01T10:28:21;95205.25;;;24.26;45.14
30744;BME280;17486;46.738;7.622;2022-09-01T10:30:50;95228.84;;;24.38;45.73
30744;BME280;17486;46.738;7.622;2022-09-01T10:33:18;95221.88;;;24.37;46.16
30744;BME280;17486;46.738;7.622;2022-09-01T10:35:45;95199.94;;;24.26;46.08
30744;BME280;17486;46.738;7.622;2022-09-01T10:38:19;95197.28;;;24.26;45.81
30744;BME280;17486;46.738;7.622;2022-09-01T10:40:49;95203.75;;;24.32;46.04
30744;BME280;17486;46.738;7.622;2022-09-01T10:43:41;95228.22;;;24.44;46.04
30744;BME280;17486;46.738;7.622;2022-09-01T10:48:54;95213.47;;;24.58;45.58
30744;BME280;17486;46.738;7.622;2022-09-01T10:53:46;95215.34;;;24.82;45.27
30744;BME280;17486;46.738;7.622;2022-09-01T10:56:23;95177.59;;;24.78;44.67
30744;BME280;17486;46.738;7.622;2022-09-01T11:04:09;95191.72;;;25.20;43.81
30744;BME280;17486;46.738;7.622;2022-09-01T11:14:31;95181.22;;;25.99;42.67
30744;BME280;17486;46.738;7.622;2022-09-01T11:30:17;95180.56;;;26.06;41.07
30744;BME280;17486;46.738;7.622;2022-09-01T11:32:45;95161.94;;;25.89;41.30
30744;BME280;17486;46.738;7.622;2022-09-01T11:35:22;95178.72;;;25.98;41.58
30744;BME280;17486;46.738;7.622;2022-09-01T11:37:51;95158.59;;;25.87;41.06
30744;BME280;17486;46.738;7.622;2022-09-01T11:40:23;95172.91;;;25.94;41.07
30744;BME280;17486;46.738;7.622;2022-09-01T11:42:50;95170.88;;;25.96;41.23
30744;BME280;17486;46.738;7.622;2022-09-01T11:45:22;95167.25;;;25.89;42.01
30744;BME280;17486;46.738;7.622;2022-09-01T11:47:51;95177.53;;;26.01;41.96
30744;BME280;17486;46.738;7.622;2022-09-01T11:50:22;95176.50;;;26.02;41.50
30744;BME280;17486;46.738;7.622;2022-09-01T11:53:19;95172.84;;;26.11;41.71
30744;BME280;17486;46.738;7.622;2022-09-01T11:55:48;95171.19;;;26.10;41.11
30744;BME280;17486;46.738;7.622;2022-09-01T12:00:52;95169.59;;;26.32;41.12
30744;BME280;17486;46.738;7.622;2022-09-01T12:03:25;95174.22;;;26.61;41.32
30744;BME280;17486;46.738;7.622;2022-09-01T12:05:53;95151.59;;;26.80;40.54
30744;BME280;17486;46.738;7.622;2022-09-01T12:08:23;95166.72;;;27.26;39.66
30744;BME280;17486;46.738;7.622;2022-09-01T12:11:11;95150.91;;;27.40;39.50
30744;BME280;17486;46.738;7.622;2022-09-01T12:13:39;95157.06;;;27.70;38.63
30744;BME280;17486;46.738;7.622;2022-09-01T12:16:07;95144.06;;;27.82;37.75
30744;BME280;17486;46.738;7.622;2022-09-01T12:18:36;95146.84;;;28.04;38.36
30744;BME280;17486;46.738;7.622;2022-09-01T12:21:05;95156.19;;;28.29;37.85
30744;BME280;17486;46.738;7.622;2022-09-01T12:23:40;95152.75;;;28.36;37.23
30744;BME280;17486;46.738;7.622;2022-09-01T12:26:12;95147.66;;;28.41;36.83
30744;BME280;17486;46.738;7.622;2022-09-01T12:28:39;95168.38;;;28.54;36.72
30744;BME280;17486;46.738;7.622;2022-09-01T12:31:18;95140.59;;;28.33;37.12
30744;BME280;17486;46.738;7.622;2022-09-01T12:33:45;95141.78;;;28.31;36.56
30744;BME280;17486;46.738;7.622;2022-09-01T12:37:00;95168.16;;;28.34;36.90
30744;BME280;17486;46.738;7.622;2022-09-01T12:39:44;95140.06;;;28.23;36.80
30744;BME280;17486;46.738;7.622;2022-09-01T12:45:01;95157.28;;;28.35;36.99
30744;BME280;17486;46.738;7.622;2022-09-01T12:50:04;95165.44;;;28.49;36.81
30744;BME280;17486;46.738;7.622;2022-09-01T12:52:34;95161.81;;;28.56;36.51
30744;BME280;17486;46.738;7.622;2022-09-01T12:57:35;95154.59;;;28.72;35.89
30744;BME280;17486;46.738;7.622;2022-09-01T13:03:12;95144.78;;;28.79;36.03
30744;BME280;17486;46.738;7.622;2022-09-01T13:05:40;95140.16;;;28.94;36.03
30744;BME280;17486;46.738;7.622;2022-09-01T13:08:17;95142.78;;;29.16;35.46
30744;BME280;17486;46.738;7.622;2022-09-01T13:10:46;95145.88;;;29.35;34.41
30744;BME280;17486;46.738;7.622;2022-09-01T13:13:13;95130.66;;;29.42;34.27
30744;BME280;17486;46.738;7.622;2022-09-01T13:15:41;95117.72;;;29.52;34.15
30744;BME280;17486;46.738;7.622;2022-09-01T13:18:07;95136.25;;;29.82;33.63
30744;BME280;17486;46.738;7.622;2022-09-01T13:20:33;95138.59;;;29.99;33.76
30744;BME280;17486;46.738;7.622;2022-09-01T13:22:59;95136.59;;;30.14;33.71
30744;BME280;17486;46.738;7.622;2022-09-01T13:25:24;95142.63;;;30.30;33.00
30744;BME280;17486;46.738;7.622;2022-09-01T13:27:50;95130.47;;;30.40;32.57
30744;BME280;17486;46.738;7.622;2022-09-01T13:30:19;95118.50;;;30.43;32.54
30744;BME280;17486;46.738;7.622;2022-09-01T13:32:46;95124.13;;;30.62;32.21
30744;BME280;17486;46.738;7.622;2022-09-01T13:35:14;95107.44;;;30.59;31.86
30744;BME280;17486;46.738;7.622;2022-09-01T13:37:40;95115.28;;;30.68;31.22
30744;BME280;17486;46.738;7.622;2022-09-01T13:40:06;95114.84;;;30.64;30.94
30744;BME280;17486;46.738;7.622;2022-09-01T13:42:34;95119.41;;;30.64;30.92
30744;BME280;17486;46.738;7.622;2022-09-01T13:44:59;95120.22;;;30.57;30.73
30744;BME280;17486;46.738;7.622;2022-09-01T13:47:25;95110.88;;;30.33;30.52
30744;BME280;17486;46.738;7.622;2022-09-01T13:49:50;95106.91;;;30.22;31.71
30744;BME280;17486;46.738;7.622;2022-09-01T13:52:16;95118.69;;;30.21;30.64
30744;BME280;17486;46.738;7.622;2022-09-01T13:54:41;95130.84;;;30.17;30.07
30744;BME280;17486;46.738;7.622;2022-09-01T13:57:11;95109.16;;;30.12;30.21
30744;BME280;17486;46.738;7.622;2022-09-01T13:59:38;95110.63;;;30.15;30.57
30744;BME280;17486;46.738;7.622;2022-09-01T14:02:03;95099.22;;;30.06;31.47
30744;BME280;17486;46.738;7.622;2022-09-01T14:04:29;95110.00;;;30.19;30.96
30744;BME280;17486;46.738;7.622;2022-09-01T14:06:55;95094.88;;;30.05;31.53
30744;BME280;17486;46.738;7.622;2022-09-01T14:09:21;95095.75;;;30.12;31.43
30744;BME280;17486;46.738;7.622;2022-09-01T14:11:46;95112.47;;;30.27;31.50
30744;BME280;17486;46.738;7.622;2022-09-01T14:14:12;95110.84;;;30.26;30.84
30744;BME280;17486;46.738;7.622;2022-09-01T14:16:37;95090.84;;;30.29;30.60
30744;BME280;17486;46.738;7.622;2022-09-01T14:19:03;95090.88;;;30.49;30.88
30744;BME280;17486;46.738;7.622;2022-09-01T14:21:28;95103.94;;;30.79;30.08
30744;BME280;17486;46.738;7.622;2022-09-01T14:23:54;95089.06;;;30.83;30.24
30744;BME280;17486;46.738;7.622;2022-09-01T14:26:19;95087.00;;;30.99;30.23
30744;BME280;17486;46.738;7.622;2022-09-01T14:28:45;95101.06;;;31.14;29.81
30744;BME280;17486;46.738;7.622;2022-09-01T14:31:16;95086.56;;;31.15;29.40
30744;BME280;17486;46.738;7.622;2022-09-01T14:33:43;95094.22;;;31.25;28.34